Time;durP1;ratioP1;P1;durP2;ratioP2;P2;SDS_P1;SDS_P2;PMS_P1;PMS_P2;Temp;Humidity;BMP_temperature;BMP_pressure;BME280_temperature;BME280_humidity;BME280_pressure;Samples;Min_cycle;Max_cycle;Signal;HPM_P1;HPM_P2
2023/05/23 00:01:53;;;;;;;;;;;13.10;96.30;;;;;;5114077;28;20002;-67
2023/05/23 00:04:20;;;;;;;;;;;13.30;95.40;;;;;;5113576;28;19920;-65
2023/05/23 00:06:49;;;;;;;;;;;13.30;95.40;;;;;;5113917;28;19930;-67
2023/05/23 00:09:16;;;;;;;;;;;13.40;95.10;;;;;;5113781;28;20424;-66
2023/05/23 00:11:46;;;;;;;;;;;13.60;95.40;;;;;;5113985;28;19908;-65
2023/05/23 00:14:13;;;;;;;;;;;13.60;94.90;;;;;;5113420;28;19908;-65
2023/05/23 00:16:44;;;;;;;;;;;13.70;94.60;;;;;;5112950;28;20284;-68
2023/05/23 00:19:13;;;;;;;;;;;13.90;94.20;;;;;;5113469;28;19912;-67
2023/05/23 00:21:40;;;;;;;;;;;14.00;94.10;;;;;;5112473;28;19916;-64
2023/05/23 00:24:08;;;;;;;;;;;14.10;94.20;;;;;;5112825;28;20287;-67
2023/05/23 00:26:36;;;;;;;;;;;14.10;92.80;;;;;;5112390;28;19916;-64
2023/05/23 00:29:02;;;;;;;;;;;14.20;92.60;;;;;;5113150;28;19908;-64
2023/05/23 00:31:29;;;;;;;;;;;14.30;92.90;;;;;;5112861;28;19915;-67
2023/05/23 00:33:55;;;;;;;;;;;14.50;93.10;;;;;;5111108;28;19908;-66
2023/05/23 00:36:22;;;;;;;;;;;14.60;92.40;;;;;;5111811;28;19915;-65
2023/05/23 00:38:49;;;;;;;;;;;14.60;92.00;;;;;;5112779;28;19907;-66
2023/05/23 00:41:17;;;;;;;;;;;14.70;92.10;;;;;;5112098;28;19927;-64
2023/05/23 00:43:44;;;;;;;;;;;14.80;92.10;;;;;;5112597;28;19915;-64
2023/05/23 00:46:10;;;;;;;;;;;14.80;91.40;;;;;;5096881;28;19920;-64
2023/05/23 00:48:41;;;;;;;;;;;14.90;91.30;;;;;;5112064;28;20298;-64
2023/05/23 00:51:07;;;;;;;;;;;14.90;91.20;;;;;;5112827;28;19914;-64
2023/05/23 00:53:34;;;;;;;;;;;14.90;90.90;;;;;;5112631;28;19907;-64
2023/05/23 00:56:01;;;;;;;;;;;15.10;90.60;;;;;;5101288;28;19930;-65
2023/05/23 00:58:28;;;;;;;;;;;15.10;90.40;;;;;;5112603;28;20006;-64
2023/05/23 01:00:55;;;;;;;;;;;15.20;90.50;;;;;;5111844;28;19911;-66
2023/05/23 01:03:22;;;;;;;;;;;15.30;90.50;;;;;;5112025;28;19915;-67
2023/05/23 01:05:49;;;;;;;;;;;15.60;90.50;;;;;;5111162;28;19927;-65
2023/05/23 01:08:16;;;;;;;;;;;15.70;89.60;;;;;;5093982;28;19915;-64
2023/05/23 01:10:42;;;;;;;;;;;15.80;89.50;;;;;;5111670;28;19907;-67
2023/05/23 01:13:27;;;;;;;;;;;16.00;90.10;;;;;;5111067;28;19915;-65
2023/05/23 01:15:59;;;;;;;;;;;16.10;89.20;;;;;;5109808;28;19939;-64
2023/05/23 01:18:45;;;;;;;;;;;16.20;86.80;;;;;;5091559;28;19907;-67
2023/05/23 01:21:18;;;;;;;;;;;16.30;86.10;;;;;;5110778;28;20433;-65
2023/05/23 01:23:56;;;;;;;;;;;16.40;86.80;;;;;;5110277;28;19908;-66
2023/05/23 01:26:39;;;;;;;;;;;16.40;86.10;;;;;;5110649;28;20398;-67
2023/05/23 01:29:11;;;;;;;;;;;16.50;85.90;;;;;;5112698;28;19908;-67
2023/05/23 01:31:41;;;;;;;;;;;16.60;85.90;;;;;;5112484;28;19908;-66
2023/05/23 01:34:09;;;;;;;;;;;16.70;85.30;;;;;;5110703;28;19991;-66
2023/05/23 01:36:39;;;;;;;;;;;16.80;85.70;;;;;;5112188;28;20356;-65
2023/05/23 01:39:06;;;;;;;;;;;16.90;85.10;;;;;;5112355;28;19939;-66
2023/05/23 01:41:32;;;;;;;;;;;17.00;84.20;;;;;;5093537;28;19924;-65
2023/05/23 01:43:59;;;;;;;;;;;17.20;85.00;;;;;;5112122;28;19957;-66
2023/05/23 01:46:27;;;;;;;;;;;17.40;84.90;;;;;;5112096;28;19927;-63
2023/05/23 01:48:55;;;;;;;;;;;17.60;83.30;;;;;;5112224;28;19907;-66
2023/05/23 01:51:22;;;;;;;;;;;17.80;82.70;;;;;;5112423;28;19911;-65
2023/05/23 01:53:51;;;;;;;;;;;17.90;82.80;;;;;;5111452;28;20403;-64
2023/05/23 01:56:19;;;;;;;;;;;18.00;82.40;;;;;;5111430;28;19907;-66
2023/05/23 01:58:46;;;;;;;;;;;18.10;82.00;;;;;;5111881;28;19908;-64
2023/05/23 02:01:12;;;;;;;;;;;18.30;82.40;;;;;;5112464;28;19908;-67
2023/05/23 02:03:39;;;;;;;;;;;18.30;81.10;;;;;;5112445;28;20353;-67
2023/05/23 02:06:06;;;;;;;;;;;18.40;82.00;;;;;;5111299;28;20284;-66
2023/05/23 02:08:32;;;;;;;;;;;18.40;80.30;;;;;;5112136;28;19995;-66
2023/05/23 02:10:59;;;;;;;;;;;18.40;80.80;;;;;;5112037;28;19908;-65
2023/05/23 02:13:26;;;;;;;;;;;18.40;80.90;;;;;;5111421;28;20275;-66
2023/05/23 02:15:52;;;;;;;;;;;18.30;80.80;;;;;;5106403;28;19912;-66
2023/05/23 02:18:19;;;;;;;;;;;18.20;81.30;;;;;;5111199;28;19965;-67
2023/05/23 02:20:46;;;;;;;;;;;18.20;81.50;;;;;;5111335;28;19908;-67
2023/05/23 02:23:13;;;;;;;;;;;18.20;81.60;;;;;;5115264;28;20321;-66
2023/05/23 02:25:39;;;;;;;;;;;18.10;82.70;;;;;;5115714;28;19962;-67
2023/05/23 02:28:06;;;;;;;;;;;18.20;81.30;;;;;;5115572;28;19973;-65
2023/05/23 02:30:32;;;;;;;;;;;18.20;82.70;;;;;;5115753;28;19908;-66
2023/05/23 02:33:03;;;;;;;;;;;18.30;82.30;;;;;;5115797;28;19907;-67
2023/05/23 02:35:30;;;;;;;;;;;18.40;83.90;;;;;;5100830;28;19916;-66
2023/05/23 02:37:57;;;;;;;;;;;18.50;82.70;;;;;;5095576;28;19953;-64
2023/05/23 02:40:23;;;;;;;;;;;18.70;82.30;;;;;;5094765;28;19966;-66
2023/05/23 02:42:56;;;;;;;;;;;18.80;80.00;;;;;;5095389;28;19962;-66
2023/05/23 02:45:23;;;;;;;;;;;18.90;80.80;;;;;;5076251;28;20007;-66
2023/05/23 02:47:50;;;;;;;;;;;19.00;80.60;;;;;;5089954;28;20492;-65
2023/05/23 02:50:16;;;;;;;;;;;19.20;79.60;;;;;;5115449;28;19947;-65
2023/05/23 02:52:43;;;;;;;;;;;19.60;78.60;;;;;;5115549;28;19908;-64
2023/05/23 02:55:10;;;;;;;;;;;19.90;78.60;;;;;;5102881;28;19912;-66
2023/05/23 02:57:37;;;;;;;;;;;20.20;78.30;;;;;;5094919;28;19966;-66
2023/05/23 03:00:03;;;;;;;;;;;20.60;78.10;;;;;;5094857;28;19991;-62
2023/05/23 03:02:30;;;;;;;;;;;21.50;76.50;;;;;;5095155;28;19961;-64
2023/05/23 03:04:57;;;;;;;;;;;22.70;73.50;;;;;;5104205;28;19923;-68
2023/05/23 03:07:24;;;;;;;;;;;23.10;71.40;;;;;;5114872;28;19907;-65
2023/05/23 03:09:51;;;;;;;;;;;23.30;71.30;;;;;;5114546;28;19912;-67
2023/05/23 03:12:17;;;;;;;;;;;24.00;69.40;;;;;;5115138;28;20287;-63
2023/05/23 03:14:44;;;;;;;;;;;24.50;68.50;;;;;;5106532;28;19916;-66
2023/05/23 03:17:12;;;;;;;;;;;24.60;67.20;;;;;;5094722;28;19911;-66
2023/05/23 03:19:39;;;;;;;;;;;24.40;67.60;;;;;;5094238;28;19908;-67
2023/05/23 03:22:06;;;;;;;;;;;23.80;68.50;;;;;;5094501;28;19912;-66
2023/05/23 03:24:32;;;;;;;;;;;23.30;68.60;;;;;;5094345;28;19912;-67
2023/05/23 03:27:00;;;;;;;;;;;23.10;70.00;;;;;;5101931;27;19915;-66
2023/05/23 03:29:26;;;;;;;;;;;23.80;69.50;;;;;;5113450;28;19912;-65
2023/05/23 03:31:53;;;;;;;;;;;25.30;68.30;;;;;;5113662;28;19915;-65
2023/05/23 03:34:20;;;;;;;;;;;27.00;65.50;;;;;;5112936;28;19915;-65
2023/05/23 03:36:46;;;;;;;;;;;28.70;62.90;;;;;;5114429;28;19915;-63
2023/05/23 03:39:13;;;;;;;;;;;30.10;60.00;;;;;;5114230;28;19908;-63
2023/05/23 03:41:39;;;;;;;;;;;31.20;58.10;;;;;;5113549;28;19920;-64
2023/05/23 03:44:06;;;;;;;;;;;32.20;56.70;;;;;;5113652;28;19908;-64
2023/05/23 03:46:33;;;;;;;;;;;32.90;54.30;;;;;;5113913;28;19968;-65
2023/05/23 03:49:00;;;;;;;;;;;33.50;53.00;;;;;;5113038;28;20351;-64
2023/05/23 03:51:27;;;;;;;;;;;34.20;52.40;;;;;;5112577;28;20231;-65
2023/05/23 03:53:53;;;;;;;;;;;34.30;51.40;;;;;;5113997;28;20002;-64
2023/05/23 03:56:20;;;;;;;;;;;34.90;51.20;;;;;;5114120;28;20279;-66
2023/05/23 03:58:46;;;;;;;;;;;35.30;50.20;;;;;;5114108;28;20037;-64
2023/05/23 04:01:13;;;;;;;;;;;35.30;50.10;;;;;;5113745;28;19961;-65
2023/05/23 04:03:40;;;;;;;;;;;35.10;49.90;;;;;;5113775;28;19915;-62
2023/05/23 04:06:06;;;;;;;;;;;34.60;49.90;;;;;;5095313;28;20387;-65
2023/05/23 04:08:34;;;;;;;;;;;34.10;50.50;;;;;;5113945;28;19963;-64
2023/05/23 04:11:01;;;;;;;;;;;33.70;50.70;;;;;;5095406;28;19994;-64
2023/05/23 04:13:29;;;;;;;;;;;33.50;50.70;;;;;;5113354;28;19916;-66
2023/05/23 04:15:56;;;;;;;;;;;32.20;51.40;;;;;;5095148;28;19916;-65
2023/05/23 04:18:23;;;;;;;;;;;30.80;52.50;;;;;;5086065;28;19911;-62
2023/05/23 04:20:49;;;;;;;;;;;29.30;54.30;;;;;;5101324;28;19931;-65
2023/05/23 04:23:16;;;;;;;;;;;27.90;55.80;;;;;;5092871;28;19935;-63
2023/05/23 04:25:43;;;;;;;;;;;26.60;57.80;;;;;;5109532;28;20429;-62
2023/05/23 04:28:10;;;;;;;;;;;25.50;59.10;;;;;;5113685;28;19908;-66
2023/05/23 04:30:37;;;;;;;;;;;24.70;61.50;;;;;;5113453;28;19915;-67
2023/05/23 04:33:05;;;;;;;;;;;24.20;63.30;;;;;;5113513;28;19907;-63
2023/05/23 04:35:33;;;;;;;;;;;23.60;64.30;;;;;;5097992;28;19961;-64
2023/05/23 04:38:00;;;;;;;;;;;23.00;66.40;;;;;;5092727;28;20272;-64
2023/05/23 04:40:28;;;;;;;;;;;22.50;67.80;;;;;;5092653;28;19923;-64
2023/05/23 04:42:55;;;;;;;;;;;22.10;69.40;;;;;;5092501;28;19912;-64
2023/05/23 04:45:22;;;;;;;;;;;21.70;70.90;;;;;;5105526;28;19923;-62
2023/05/23 04:47:48;;;;;;;;;;;21.40;72.00;;;;;;5113462;28;20006;-63
2023/05/23 04:50:15;;;;;;;;;;;21.00;73.20;;;;;;5113120;28;20340;-63
2023/05/23 04:52:42;;;;;;;;;;;20.90;74.60;;;;;;5112922;28;19967;-63
2023/05/23 04:55:09;;;;;;;;;;;20.80;75.90;;;;;;5086879;28;19912;-65
2023/05/23 04:57:36;;;;;;;;;;;20.80;76.10;;;;;;5107552;28;19912;-66
2023/05/23 05:00:09;;;;;;;;;;;20.70;76.60;;;;;;5107962;28;19908;-66
2023/05/23 05:02:36;;;;;;;;;;;20.70;77.60;;;;;;5111473;28;20375;-66
2023/05/23 05:05:03;;;;;;;;;;;20.60;78.80;;;;;;5110219;28;19911;-65
2023/05/23 05:07:30;;;;;;;;;;;20.50;79.70;;;;;;5111937;28;20284;-64
2023/05/23 05:09:56;;;;;;;;;;;20.60;79.90;;;;;;5112877;28;19914;-65
2023/05/23 05:12:23;;;;;;;;;;;20.60;81.20;;;;;;5112255;28;19908;-65
2023/05/23 05:14:49;;;;;;;;;;;20.70;81.20;;;;;;5112054;28;19918;-63
2023/05/23 05:17:17;;;;;;;;;;;20.80;80.50;;;;;;5111900;28;19987;-65
2023/05/23 05:19:44;;;;;;;;;;;20.70;81.00;;;;;;5111451;28;19912;-65
2023/05/23 05:22:11;;;;;;;;;;;20.60;81.60;;;;;;5115519;27;19964;-65
2023/05/23 05:24:39;;;;;;;;;;;20.40;82.40;;;;;;5115478;27;19924;-68
2023/05/23 05:27:08;;;;;;;;;;;20.30;83.00;;;;;;5111771;28;20376;-64
2023/05/23 05:29:35;;;;;;;;;;;20.30;83.20;;;;;;5109105;28;20276;-66
2023/05/23 05:32:02;;;;;;;;;;;20.30;83.30;;;;;;5111386;28;19908;-64
2023/05/23 05:34:28;;;;;;;;;;;20.30;83.50;;;;;;5105533;28;19947;-64
2023/05/23 05:36:55;;;;;;;;;;;20.50;84.10;;;;;;5073472;28;19908;-66
2023/05/23 05:39:24;;;;;;;;;;;20.50;84.00;;;;;;5103780;28;19947;-67
2023/05/23 05:41:51;;;;;;;;;;;20.80;84.60;;;;;;5111837;28;19927;-65
2023/05/23 05:44:18;;;;;;;;;;;21.50;83.40;;;;;;5107257;28;19908;-63
2023/05/23 05:46:44;;;;;;;;;;;21.80;81.80;;;;;;5091353;28;19912;-64
2023/05/23 05:49:11;;;;;;;;;;;22.00;82.40;;;;;;5100084;28;19951;-65
2023/05/23 05:51:37;;;;;;;;;;;21.90;83.00;;;;;;5111099;28;19912;-65
2023/05/23 05:54:04;;;;;;;;;;;21.80;83.50;;;;;;5111472;28;19915;-63
2023/05/23 05:56:31;;;;;;;;;;;22.00;83.10;;;;;;5112575;28;19919;-64
2023/05/23 05:58:57;;;;;;;;;;;22.20;81.60;;;;;;5111490;28;20349;-63
2023/05/23 06:01:25;;;;;;;;;;;22.20;80.90;;;;;;5110574;28;19918;-63
2023/05/23 06:03:52;;;;;;;;;;;22.30;80.80;;;;;;5113942;28;19907;-64
2023/05/23 06:06:18;;;;;;;;;;;22.30;81.40;;;;;;5111976;28;19920;-65
2023/05/23 06:08:45;;;;;;;;;;;22.50;81.70;;;;;;5114784;28;19927;-64
2023/05/23 06:11:12;;;;;;;;;;;22.70;80.90;;;;;;5115373;28;19908;-64
2023/05/23 06:13:38;;;;;;;;;;;22.70;81.10;;;;;;5110736;28;19907;-65
2023/05/23 06:16:06;;;;;;;;;;;22.40;81.00;;;;;;5114669;28;19908;-64
2023/05/23 06:18:32;;;;;;;;;;;21.90;82.40;;;;;;5114874;28;19969;-63
2023/05/23 06:20:59;;;;;;;;;;;21.50;83.30;;;;;;5115018;28;19930;-62
2023/05/23 06:23:26;;;;;;;;;;;20.90;84.80;;;;;;5113989;28;19961;-66
2023/05/23 06:25:52;;;;;;;;;;;20.40;86.70;;;;;;5113468;28;19923;-66
2023/05/23 06:28:19;;;;;;;;;;;20.00;88.00;;;;;;5114152;28;19947;-62
2023/05/23 06:30:46;;;;;;;;;;;19.70;89.40;;;;;;5112998;28;20372;-66
2023/05/23 06:33:12;;;;;;;;;;;19.30;90.30;;;;;;5114767;28;19908;-66
2023/05/23 06:35:39;;;;;;;;;;;19.00;90.90;;;;;;5114943;28;19998;-65
2023/05/23 06:38:06;;;;;;;;;;;18.70;91.50;;;;;;5114904;28;19946;-64
2023/05/23 06:40:32;;;;;;;;;;;18.40;92.30;;;;;;5112088;28;20360;-67
2023/05/23 06:42:59;;;;;;;;;;;18.20;92.70;;;;;;5113918;28;19999;-65
2023/05/23 06:45:26;;;;;;;;;;;18.00;93.30;;;;;;5114298;28;19993;-64
2023/05/23 06:47:52;;;;;;;;;;;17.90;93.80;;;;;;5113889;28;19942;-63
2023/05/23 06:50:19;;;;;;;;;;;17.60;94.20;;;;;;5114160;28;19908;-63
2023/05/23 06:52:46;;;;;;;;;;;17.50;94.70;;;;;;5113638;28;19912;-64
2023/05/23 06:55:17;;;;;;;;;;;17.30;95.40;;;;;;5114601;28;19916;-66
2023/05/23 06:57:43;;;;;;;;;;;17.20;96.10;;;;;;5115721;28;19908;-65
2023/05/23 07:00:12;;;;;;;;;;;17.00;96.90;;;;;;5116546;28;20383;-64
2023/05/23 07:02:39;;;;;;;;;;;16.80;97.40;;;;;;5114495;28;20280;-66
2023/05/23 07:05:05;;;;;;;;;;;16.80;98.10;;;;;;5095065;28;19916;-65
2023/05/23 07:07:32;;;;;;;;;;;16.60;98.70;;;;;;5114165;28;19908;-65
2023/05/23 07:09:59;;;;;;;;;;;16.50;99.10;;;;;;5114071;28;19912;-65
2023/05/23 07:12:25;;;;;;;;;;;16.40;99.70;;;;;;5113665;28;20368;-64
2023/05/23 07:14:52;;;;;;;;;;;16.20;99.90;;;;;;5114023;28;19912;-66
2023/05/23 07:17:18;;;;;;;;;;;16.10;99.90;;;;;;5114547;28;19908;-67
2023/05/23 07:19:45;;;;;;;;;;;16.00;99.90;;;;;;5113046;28;19907;-65
2023/05/23 07:22:12;;;;;;;;;;;15.90;99.90;;;;;;5110029;28;20326;-65
2023/05/23 07:24:38;;;;;;;;;;;15.90;99.90;;;;;;5111996;28;19912;-66
2023/05/23 07:27:05;;;;;;;;;;;15.80;99.90;;;;;;5113913;28;20010;-65
2023/05/23 07:29:32;;;;;;;;;;;15.70;99.90;;;;;;5113849;28;19962;-66
2023/05/23 07:31:58;;;;;;;;;;;15.60;99.90;;;;;;5113716;28;20379;-67
2023/05/23 07:34:25;;;;;;;;;;;15.60;99.90;;;;;;5113791;28;19919;-65
2023/05/23 07:36:52;;;;;;;;;;;15.40;99.90;;;;;;5110926;28;19916;-64
2023/05/23 07:39:21;;;;;;;;;;;15.40;99.90;;;;;;5112444;28;19908;-66
2023/05/23 07:41:48;;;;;;;;;;;15.30;99.90;;;;;;5113053;28;20010;-65
2023/05/23 07:44:16;;;;;;;;;;;15.20;99.90;;;;;;5095225;28;19912;-66
2023/05/23 07:46:42;;;;;;;;;;;15.10;99.90;;;;;;5113315;28;19912;-67
2023/05/23 07:49:09;;;;;;;;;;;15.10;99.90;;;;;;5113009;28;19915;-67
2023/05/23 07:51:36;;;;;;;;;;;15.00;99.90;;;;;;5113854;28;19956;-65
2023/05/23 07:54:03;;;;;;;;;;;15.00;99.90;;;;;;5113658;28;19999;-66
2023/05/23 07:56:30;;;;;;;;;;;14.90;99.90;;;;;;5113227;28;19908;-66
2023/05/23 07:58:56;;;;;;;;;;;14.70;99.90;;;;;;5113939;28;19908;-66
2023/05/23 08:01:25;;;;;;;;;;;14.70;99.90;;;;;;5112844;28;19998;-67
2023/05/23 08:03:51;;;;;;;;;;;14.60;99.90;;;;;;5111924;28;19911;-67
2023/05/23 08:06:18;;;;;;;;;;;14.60;99.90;;;;;;5111974;28;19938;-67
2023/05/23 08:08:44;;;;;;;;;;;14.50;99.90;;;;;;5111670;28;19907;-66
2023/05/23 08:11:11;;;;;;;;;;;14.40;99.90;;;;;;5112125;28;19998;-66
2023/05/23 08:13:38;;;;;;;;;;;14.40;99.90;;;;;;5111814;28;19907;-65
2023/05/23 08:16:04;;;;;;;;;;;14.30;99.90;;;;;;5111706;28;19912;-64
2023/05/23 08:18:31;;;;;;;;;;;14.30;99.90;;;;;;5113204;28;19915;-64
2023/05/23 08:20:57;;;;;;;;;;;14.20;99.90;;;;;;5112460;28;19914;-63
2023/05/23 08:23:24;;;;;;;;;;;14.10;99.90;;;;;;5094835;28;19907;-66
2023/05/23 08:25:52;;;;;;;;;;;14.10;99.90;;;;;;5113564;28;20292;-66
2023/05/23 08:28:18;;;;;;;;;;;14.10;99.90;;;;;;5095263;28;19915;-65
2023/05/23 08:30:45;;;;;;;;;;;14.00;99.90;;;;;;5094442;28;19908;-66
2023/05/23 08:33:12;;;;;;;;;;;13.90;99.90;;;;;;5113372;28;19908;-65
2023/05/23 08:35:40;;;;;;;;;;;13.90;99.90;;;;;;5113293;28;19915;-65
2023/05/23 08:38:07;;;;;;;;;;;13.80;99.90;;;;;;5113153;28;19966;-65
2023/05/23 08:40:35;;;;;;;;;;;13.70;99.90;;;;;;5113179;28;19920;-65
2023/05/23 08:43:02;;;;;;;;;;;13.70;99.90;;;;;;5112934;28;19915;-65
2023/05/23 08:45:29;;;;;;;;;;;13.70;99.90;;;;;;5113206;28;19915;-65
2023/05/23 08:47:58;;;;;;;;;;;13.70;99.90;;;;;;5113308;28;20425;-65
2023/05/23 08:50:26;;;;;;;;;;;13.60;99.90;;;;;;5112601;28;20303;-65
2023/05/23 08:52:57;;;;;;;;;;;13.50;99.90;;;;;;5094574;28;19981;-65
2023/05/23 08:55:27;;;;;;;;;;;13.60;99.90;;;;;;5113368;28;19943;-67
2023/05/23 08:57:54;;;;;;;;;;;13.50;99.90;;;;;;5113591;28;19915;-66
2023/05/23 09:00:22;;;;;;;;;;;13.50;99.90;;;;;;5113058;28;19919;-64
2023/05/23 09:02:48;;;;;;;;;;;13.40;99.90;;;;;;5112690;28;20257;-64
2023/05/23 09:05:15;;;;;;;;;;;13.40;99.90;;;;;;5112578;28;19916;-67
2023/05/23 09:07:43;;;;;;;;;;;13.40;99.90;;;;;;5110167;28;20354;-67
2023/05/23 09:10:10;;;;;;;;;;;13.40;99.90;;;;;;5112712;28;19907;-66
2023/05/23 09:12:36;;;;;;;;;;;13.30;99.90;;;;;;5112658;28;19924;-66
2023/05/23 09:15:04;;;;;;;;;;;13.20;99.90;;;;;;5112302;28;19914;-66
2023/05/23 09:17:32;;;;;;;;;;;13.20;99.90;;;;;;5112135;28;19933;-65
2023/05/23 09:19:59;;;;;;;;;;;13.20;99.90;;;;;;5111401;28;19912;-65
2023/05/23 09:22:27;;;;;;;;;;;13.20;99.90;;;;;;5112577;28;19915;-67
2023/05/23 09:24:54;;;;;;;;;;;13.10;99.90;;;;;;5111310;28;19920;-67
2023/05/23 09:27:21;;;;;;;;;;;13.00;99.90;;;;;;5111512;28;19976;-64
2023/05/23 09:29:51;;;;;;;;;;;13.00;99.90;;;;;;5112007;28;20328;-65
2023/05/23 09:32:18;;;;;;;;;;;13.00;99.90;;;;;;5110017;28;19908;-64
2023/05/23 09:34:56;;;;;;;;;;;13.00;99.90;;;;;;5112185;28;19918;-64
2023/05/23 09:37:44;;;;;;;;;;;13.00;99.90;;;;;;5110679;28;19939;-66
2023/05/23 09:40:12;;;;;;;;;;;13.00;99.90;;;;;;5111642;28;19930;-65
2023/05/23 09:42:43;;;;;;;;;;;12.90;99.90;;;;;;5111871;28;19984;-64
2023/05/23 09:45:10;;;;;;;;;;;12.90;99.90;;;;;;5111554;28;20391;-66
2023/05/23 09:47:36;;;;;;;;;;;12.90;99.90;;;;;;5111520;28;19915;-65
2023/05/23 09:50:04;;;;;;;;;;;12.80;99.90;;;;;;5111832;28;19912;-64
2023/05/23 09:52:37;;;;;;;;;;;12.80;99.90;;;;;;5093238;28;19914;-65
2023/05/23 09:55:05;;;;;;;;;;;12.80;99.90;;;;;;5112053;28;19915;-66
2023/05/23 09:57:36;;;;;;;;;;;12.80;99.90;;;;;;5111902;28;19947;-66
2023/05/23 10:00:12;;;;;;;;;;;12.80;99.90;;;;;;5111826;28;20007;-66
2023/05/23 10:02:57;;;;;;;;;;;12.70;99.90;;;;;;5111878;28;19912;-66
2023/05/23 10:05:30;;;;;;;;;;;12.70;99.90;;;;;;5109406;28;19931;-67
2023/05/23 10:08:01;;;;;;;;;;;12.60;99.90;;;;;;5111848;28;19908;-67
2023/05/23 10:10:31;;;;;;;;;;;12.60;99.90;;;;;;5109563;28;19907;-67
2023/05/23 10:12:58;;;;;;;;;;;12.60;99.90;;;;;;5111427;28;19915;-65
2023/05/23 10:15:27;;;;;;;;;;;12.50;99.90;;;;;;5108539;28;20010;-66
2023/05/23 10:18:02;;;;;;;;;;;12.50;99.90;;;;;;5110503;28;19969;-66
2023/05/23 10:20:33;;;;;;;;;;;12.50;99.90;;;;;;5106779;28;19912;-67
2023/05/23 10:23:00;;;;;;;;;;;12.50;99.90;;;;;;5104356;28;20558;-66
2023/05/23 10:25:27;;;;;;;;;;;12.40;99.90;;;;;;5106675;28;19923;-66
2023/05/23 10:27:58;;;;;;;;;;;12.30;99.90;;;;;;5111498;28;20006;-65
2023/05/23 10:30:28;;;;;;;;;;;12.30;99.90;;;;;;5131291;28;20485;-67
2023/05/23 10:32:55;;;;;;;;;;;12.40;99.90;;;;;;5114276;28;19960;-65
2023/05/23 10:35:38;;;;;;;;;;;12.40;99.90;;;;;;5111390;28;19907;-64
2023/05/23 10:38:11;;;;;;;;;;;12.30;99.90;;;;;;5111186;28;19965;-66
2023/05/23 10:40:47;;;;;;;;;;;12.30;99.90;;;;;;5114584;28;20265;-67
2023/05/23 10:43:26;;;;;;;;;;;12.30;99.90;;;;;;5098518;28;19923;-66
2023/05/23 10:45:53;;;;;;;;;;;12.20;99.90;;;;;;5101872;28;20385;-65
2023/05/23 10:48:42;;;;;;;;;;;12.20;99.90;;;;;;5115048;28;19912;-65
2023/05/23 10:51:10;;;;;;;;;;;12.10;99.90;;;;;;5106940;28;19911;-68
2023/05/23 10:53:40;;;;;;;;;;;12.10;99.90;;;;;;5094290;28;20406;-66
2023/05/23 10:56:07;;;;;;;;;;;12.00;99.90;;;;;;5103948;28;19947;-66
2023/05/23 10:58:35;;;;;;;;;;;12.00;99.90;;;;;;5115099;28;20372;-65
2023/05/23 11:01:05;;;;;;;;;;;12.00;99.90;;;;;;5096721;28;19908;-65
2023/05/23 11:03:33;;;;;;;;;;;11.90;99.90;;;;;;5101541;28;19961;-68
2023/05/23 11:06:01;;;;;;;;;;;11.90;99.90;;;;;;5114787;28;19916;-66
2023/05/23 11:08:36;;;;;;;;;;;11.90;99.90;;;;;;5114633;28;19914;-66
2023/05/23 11:11:03;;;;;;;;;;;11.90;99.90;;;;;;5114724;28;19908;-65
2023/05/23 11:13:48;;;;;;;;;;;11.80;99.90;;;;;;5094965;28;20249;-65
2023/05/23 11:16:27;;;;;;;;;;;11.80;99.90;;;;;;5104908;28;19908;-66
2023/05/23 11:19:12;;;;;;;;;;;11.80;99.90;;;;;;5114748;28;20368;-66
2023/05/23 11:21:39;;;;;;;;;;;11.80;99.90;;;;;;5097025;28;20280;-65
2023/05/23 11:24:08;;;;;;;;;;;11.80;99.90;;;;;;5114631;28;19990;-66
2023/05/23 11:26:35;;;;;;;;;;;11.80;99.90;;;;;;5115184;28;19916;-66
2023/05/23 11:29:03;;;;;;;;;;;11.80;99.90;;;;;;5114667;28;20429;-65
2023/05/23 11:31:29;;;;;;;;;;;11.70;99.90;;;;;;5096238;28;19908;-65
2023/05/23 11:33:56;;;;;;;;;;;11.60;99.90;;;;;;5114231;28;19912;-65
2023/05/23 11:36:23;;;;;;;;;;;11.60;99.90;;;;;;5115141;28;19914;-64
2023/05/23 11:38:51;;;;;;;;;;;11.70;99.90;;;;;;5115010;28;19908;-67
2023/05/23 11:41:18;;;;;;;;;;;11.60;99.90;;;;;;5114976;28;19966;-66
2023/05/23 11:43:51;;;;;;;;;;;11.50;99.90;;;;;;5114754;28;20023;-66
2023/05/23 11:46:18;;;;;;;;;;;11.60;99.90;;;;;;5114624;28;19937;-65
2023/05/23 11:48:45;;;;;;;;;;;11.50;99.90;;;;;;5114790;28;19931;-66
2023/05/23 11:51:12;;;;;;;;;;;11.50;99.90;;;;;;5111417;28;19912;-64
2023/05/23 11:53:38;;;;;;;;;;;11.50;99.90;;;;;;5113997;28;19908;-64
2023/05/23 11:56:06;;;;;;;;;;;11.50;99.90;;;;;;5113578;28;19953;-67
2023/05/23 11:58:34;;;;;;;;;;;11.50;99.90;;;;;;5113994;28;20395;-66
2023/05/23 12:01:01;;;;;;;;;;;11.50;99.90;;;;;;5095844;28;19919;-67
2023/05/23 12:03:27;;;;;;;;;;;11.50;99.90;;;;;;5114145;28;19907;-66
2023/05/23 12:05:54;;;;;;;;;;;11.40;99.90;;;;;;5113989;28;19917;-66
2023/05/23 12:08:21;;;;;;;;;;;11.40;99.90;;;;;;5114234;28;20413;-67
2023/05/23 12:10:57;;;;;;;;;;;11.40;99.90;;;;;;5113875;28;20276;-66
2023/05/23 12:13:24;;;;;;;;;;;11.40;99.90;;;;;;5111211;28;20379;-67
2023/05/23 12:15:59;;;;;;;;;;;11.40;99.90;;;;;;5114159;28;19931;-67
2023/05/23 12:18:29;;;;;;;;;;;11.30;99.90;;;;;;5113912;28;19937;-67
2023/05/23 12:21:07;;;;;;;;;;;11.40;99.90;;;;;;5113943;28;19908;-67
2023/05/23 12:23:34;;;;;;;;;;;11.30;99.90;;;;;;5113842;28;19966;-67
2023/05/23 12:26:03;;;;;;;;;;;11.30;99.90;;;;;;5113952;28;19916;-67
2023/05/23 12:28:42;;;;;;;;;;;11.30;99.90;;;;;;5113947;28;19907;-67
2023/05/23 12:31:18;;;;;;;;;;;11.30;99.90;;;;;;5114174;28;19961;-66
2023/05/23 12:33:46;;;;;;;;;;;11.20;99.90;;;;;;5113357;28;19943;-67
2023/05/23 12:36:21;;;;;;;;;;;11.20;99.90;;;;;;5113470;28;20300;-68
2023/05/23 12:38:48;;;;;;;;;;;11.20;99.90;;;;;;5113474;28;19908;-67
2023/05/23 12:41:19;;;;;;;;;;;11.20;99.90;;;;;;5113539;28;19920;-66
2023/05/23 12:43:55;;;;;;;;;;;11.10;99.90;;;;;;5113419;28;20291;-65
2023/05/23 12:46:22;;;;;;;;;;;11.10;99.90;;;;;;5113973;28;19920;-65
2023/05/23 12:48:49;;;;;;;;;;;11.10;99.90;;;;;;5113854;28;19908;-64
2023/05/23 12:51:16;;;;;;;;;;;11.10;99.90;;;;;;5113645;28;19908;-65
2023/05/23 12:53:43;;;;;;;;;;;11.10;99.90;;;;;;5113245;28;19935;-65
2023/05/23 12:56:10;;;;;;;;;;;11.00;99.90;;;;;;5113706;28;19908;-65
2023/05/23 12:58:36;;;;;;;;;;;11.00;99.90;;;;;;5113545;28;19911;-66
2023/05/23 13:01:03;;;;;;;;;;;11.00;99.90;;;;;;5113390;28;19977;-65
2023/05/23 13:03:30;;;;;;;;;;;11.00;99.90;;;;;;5113425;28;19919;-65
2023/05/23 13:05:57;;;;;;;;;;;10.90;99.90;;;;;;5112914;28;20008;-66
2023/05/23 13:08:24;;;;;;;;;;;10.90;99.90;;;;;;5113612;28;19915;-66
2023/05/23 13:10:52;;;;;;;;;;;10.90;99.90;;;;;;5113453;28;19933;-67
2023/05/23 13:13:19;;;;;;;;;;;10.90;99.90;;;;;;5113058;28;20279;-65
2023/05/23 13:15:46;;;;;;;;;;;10.90;99.90;;;;;;5113200;28;20398;-65
2023/05/23 13:18:13;;;;;;;;;;;10.80;99.90;;;;;;5113107;28;19912;-66
2023/05/23 13:20:41;;;;;;;;;;;10.80;99.90;;;;;;5112989;28;19939;-66
2023/05/23 13:23:08;;;;;;;;;;;10.80;99.90;;;;;;5113077;28;20356;-66
2023/05/23 13:25:35;;;;;;;;;;;10.80;99.90;;;;;;5113051;28;19916;-66
2023/05/23 13:28:02;;;;;;;;;;;10.80;99.90;;;;;;5113728;28;20257;-64
2023/05/23 13:30:28;;;;;;;;;;;10.80;99.90;;;;;;5112839;28;20435;-65
2023/05/23 13:32:55;;;;;;;;;;;10.80;99.90;;;;;;5113147;28;19908;-66
2023/05/23 13:35:22;;;;;;;;;;;10.80;99.90;;;;;;5113268;28;19912;-66
2023/05/23 13:37:48;;;;;;;;;;;10.70;99.90;;;;;;5113284;28;20002;-66
2023/05/23 13:40:19;;;;;;;;;;;10.80;99.90;;;;;;5112909;28;19908;-65
2023/05/23 13:42:52;;;;;;;;;;;10.70;99.90;;;;;;5113119;28;20001;-67
2023/05/23 13:45:19;;;;;;;;;;;10.70;99.90;;;;;;5112911;28;19920;-66
2023/05/23 13:47:46;;;;;;;;;;;10.70;99.90;;;;;;5113066;28;19908;-65
2023/05/23 13:50:12;;;;;;;;;;;10.60;99.90;;;;;;5112631;28;19915;-65
2023/05/23 13:52:39;;;;;;;;;;;10.60;99.90;;;;;;5112410;28;19907;-66
2023/05/23 13:55:06;;;;;;;;;;;10.50;99.90;;;;;;5112537;28;19915;-66
2023/05/23 13:57:33;;;;;;;;;;;10.50;99.90;;;;;;5112458;28;19935;-66
2023/05/23 13:59:59;;;;;;;;;;;10.60;99.90;;;;;;5112841;28;19911;-65
2023/05/23 14:02:26;;;;;;;;;;;10.50;99.90;;;;;;5112713;28;19998;-65
2023/05/23 14:04:53;;;;;;;;;;;10.50;99.90;;;;;;5112491;28;19912;-65
2023/05/23 14:07:20;;;;;;;;;;;10.50;99.90;;;;;;5112627;28;20394;-64
2023/05/23 14:09:47;;;;;;;;;;;10.40;99.90;;;;;;5112735;28;19908;-66
2023/05/23 14:12:14;;;;;;;;;;;10.40;99.90;;;;;;5112277;28;19914;-65
2023/05/23 14:14:40;;;;;;;;;;;10.40;99.90;;;;;;5112364;28;19907;-65
2023/05/23 14:17:07;;;;;;;;;;;10.40;99.90;;;;;;5112397;28;19908;-64
2023/05/23 14:19:33;;;;;;;;;;;10.40;99.90;;;;;;5116648;28;19919;-67
2023/05/23 14:22:00;;;;;;;;;;;10.40;99.90;;;;;;5116603;28;19961;-65